Time;durP1;ratioP1;P1;durP2;ratioP2;P2;SDS_P1;SDS_P2;PMS_P1;PMS_P2;Temp;Humidity;BMP_temperature;BMP_pressure;BME280_temperature;BME280_humidity;BME280_pressure;Samples;Min_cycle;Max_cycle;Signal;HPM_P1;HPM_P2
2022/08/21 00:00:42;;;;;;;;;;;15.40;99.90;;;;;;5124485;27;19919;-56
2022/08/21 00:03:21;;;;;;;;;;;15.40;99.90;;;;;;5125036;27;19912;-57
2022/08/21 00:06:02;;;;;;;;;;;15.50;99.90;;;;;;5124972;27;19912;-58
2022/08/21 00:08:42;;;;;;;;;;;15.50;99.90;;;;;;5145174;27;20017;-57
2022/08/21 00:11:23;;;;;;;;;;;15.60;99.90;;;;;;5105009;27;20210;-57
2022/08/21 00:14:03;;;;;;;;;;;15.70;99.90;;;;;;5125528;27;19919;-58
2022/08/21 00:16:44;;;;;;;;;;;15.80;99.90;;;;;;5145437;27;19912;-57
2022/08/21 00:19:24;;;;;;;;;;;15.80;99.90;;;;;;5102873;27;20179;-57
2022/08/21 00:22:17;;;;;;;;;;;15.90;99.90;;;;;;5125153;27;19918;-57
2022/08/21 00:24:57;;;;;;;;;;;16.00;99.90;;;;;;5124800;27;20381;-55
2022/08/21 00:27:37;;;;;;;;;;;16.20;99.90;;;;;;5124882;27;19911;-57
2022/08/21 00:30:18;;;;;;;;;;;16.30;99.90;;;;;;5095814;27;19954;-57
2022/08/21 00:32:58;;;;;;;;;;;16.30;99.90;;;;;;5104889;27;20319;-55
2022/08/21 00:35:39;;;;;;;;;;;16.30;99.90;;;;;;5125250;27;19912;-57
2022/08/21 00:38:19;;;;;;;;;;;16.30;99.90;;;;;;5124882;27;19941;-56
2022/08/21 00:41:00;;;;;;;;;;;16.30;99.90;;;;;;5103224;27;19966;-57
2022/08/21 00:43:41;;;;;;;;;;;16.30;99.90;;;;;;5104772;27;19912;-57
2022/08/21 00:46:20;;;;;;;;;;;16.30;99.90;;;;;;5104464;27;19918;-57
2022/08/21 00:49:00;;;;;;;;;;;16.30;99.90;;;;;;5103805;27;20347;-57
2022/08/21 00:51:43;;;;;;;;;;;16.40;99.90;;;;;;5119983;27;19973;-55
2022/08/21 00:54:24;;;;;;;;;;;16.40;99.90;;;;;;5125124;27;19911;-58
2022/08/21 00:57:07;;;;;;;;;;;16.40;99.90;;;;;;5124812;27;19912;-57
2022/08/21 00:59:50;;;;;;;;;;;16.40;99.90;;;;;;5124695;27;19915;-57
2022/08/21 01:02:30;;;;;;;;;;;16.40;99.90;;;;;;5125353;27;19912;-56
2022/08/21 01:05:10;;;;;;;;;;;16.40;99.90;;;;;;5104892;27;19958;-57
2022/08/21 01:07:50;;;;;;;;;;;16.40;99.90;;;;;;5097283;27;19916;-57
2022/08/21 01:10:30;;;;;;;;;;;16.40;99.90;;;;;;5111496;27;19912;-57
2022/08/21 01:13:13;;;;;;;;;;;16.50;99.90;;;;;;5125224;27;19920;-57
2022/08/21 01:15:54;;;;;;;;;;;16.50;99.90;;;;;;5110055;27;20429;-57
2022/08/21 01:18:34;;;;;;;;;;;16.50;99.90;;;;;;5124139;27;19911;-57
2022/08/21 01:21:15;;;;;;;;;;;16.50;99.90;;;;;;5123916;27;19945;-57
2022/08/21 01:24:07;;;;;;;;;;;16.40;99.90;;;;;;5110681;27;19945;-57
2022/08/21 01:26:47;;;;;;;;;;;16.50;99.90;;;;;;5115769;27;19911;-57
2022/08/21 01:29:31;;;;;;;;;;;16.50;99.90;;;;;;5111121;27;19920;-57
2022/08/21 01:32:13;;;;;;;;;;;16.50;99.90;;;;;;5119003;27;19918;-57
2022/08/21 01:34:53;;;;;;;;;;;16.50;99.90;;;;;;5126912;27;19916;-55
2022/08/21 01:37:35;;;;;;;;;;;16.50;99.90;;;;;;5097171;27;20363;-55
2022/08/21 01:40:17;;;;;;;;;;;16.50;99.90;;;;;;5101519;27;19916;-58
2022/08/21 01:42:57;;;;;;;;;;;16.50;99.90;;;;;;5097663;27;20867;-58
2022/08/21 01:45:37;;;;;;;;;;;16.50;99.90;;;;;;5142311;27;19912;-58
2022/08/21 01:48:17;;;;;;;;;;;16.50;99.90;;;;;;5106949;27;19919;-58
2022/08/21 01:50:57;;;;;;;;;;;16.50;99.90;;;;;;5105619;27;19912;-57
2022/08/21 01:53:36;;;;;;;;;;;16.60;99.90;;;;;;5109335;27;19919;-58
2022/08/21 01:56:17;;;;;;;;;;;16.60;99.90;;;;;;5118840;27;19918;-58
2022/08/21 01:58:58;;;;;;;;;;;16.60;99.90;;;;;;5114874;27;20186;-58
2022/08/21 02:01:39;;;;;;;;;;;16.60;99.90;;;;;;5110752;27;19918;-58
2022/08/21 02:04:19;;;;;;;;;;;16.50;99.90;;;;;;5118880;27;20288;-58
2022/08/21 02:06:59;;;;;;;;;;;16.50;99.90;;;;;;5118758;27;19930;-58
2022/08/21 02:09:42;;;;;;;;;;;16.40;99.90;;;;;;5087497;27;19931;-58
2022/08/21 02:12:22;;;;;;;;;;;16.40;99.90;;;;;;5121140;27;19912;-58
2022/08/21 02:15:02;;;;;;;;;;;16.40;99.90;;;;;;5117112;27;19912;-58
2022/08/21 02:17:43;;;;;;;;;;;16.50;99.90;;;;;;5114550;27;19918;-58
2022/08/21 02:20:24;;;;;;;;;;;16.40;99.90;;;;;;5120376;27;19912;-58
2022/08/21 02:23:05;;;;;;;;;;;16.40;99.90;;;;;;5119447;27;19954;-56
2022/08/21 02:25:46;;;;;;;;;;;16.40;99.90;;;;;;5121463;27;19920;-58
2022/08/21 02:28:27;;;;;;;;;;;16.40;99.90;;;;;;5109974;27;19937;-58
2022/08/21 02:31:08;;;;;;;;;;;16.50;99.90;;;;;;5119782;27;19916;-58
2022/08/21 02:33:48;;;;;;;;;;;16.50;99.90;;;;;;5122374;27;19928;-58
2022/08/21 02:36:28;;;;;;;;;;;16.50;99.90;;;;;;5114595;27;19918;-58
2022/08/21 02:39:08;;;;;;;;;;;16.50;99.90;;;;;;5072649;28;20110;-57
2022/08/21 02:41:48;;;;;;;;;;;16.60;99.90;;;;;;5116272;27;20446;-58
2022/08/21 02:44:28;;;;;;;;;;;16.50;99.90;;;;;;5117084;27;19930;-58
2022/08/21 02:47:07;;;;;;;;;;;16.50;99.90;;;;;;5114594;27;19916;-58
2022/08/21 02:49:47;;;;;;;;;;;16.50;99.90;;;;;;5121058;27;19977;-58
2022/08/21 02:52:27;;;;;;;;;;;16.60;99.90;;;;;;5118799;27;19912;-58
2022/08/21 02:55:07;;;;;;;;;;;16.50;99.90;;;;;;5119685;27;20361;-57
2022/08/21 02:57:47;;;;;;;;;;;16.50;99.90;;;;;;5122523;27;19912;-56
2022/08/21 03:00:28;;;;;;;;;;;16.50;99.90;;;;;;5114309;27;19918;-58
2022/08/21 03:03:08;;;;;;;;;;;16.60;99.90;;;;;;5118253;27;20312;-58
2022/08/21 03:05:48;;;;;;;;;;;16.50;99.90;;;;;;5122877;27;20388;-58
2022/08/21 03:08:28;;;;;;;;;;;16.60;99.90;;;;;;5101189;27;19912;-58
2022/08/21 03:11:08;;;;;;;;;;;16.60;99.90;;;;;;5104928;27;19920;-58
2022/08/21 03:13:47;;;;;;;;;;;16.60;99.90;;;;;;5118871;27;20291;-58
2022/08/21 03:16:27;;;;;;;;;;;16.60;99.90;;;;;;5121880;27;19953;-58
2022/08/21 03:19:07;;;;;;;;;;;16.60;99.90;;;;;;5118773;27;20300;-57
2022/08/21 03:21:47;;;;;;;;;;;16.50;99.90;;;;;;5117614;27;20202;-58
2022/08/21 03:24:27;;;;;;;;;;;16.50;99.90;;;;;;5118189;27;19912;-58
2022/08/21 03:27:06;;;;;;;;;;;16.50;99.90;;;;;;5120567;27;19918;-58
2022/08/21 03:29:46;;;;;;;;;;;16.50;99.90;;;;;;5118817;27;19912;-58
2022/08/21 03:32:26;;;;;;;;;;;16.60;99.90;;;;;;5120564;27;19934;-58
2022/08/21 03:35:06;;;;;;;;;;;16.60;99.90;;;;;;5117614;27;20403;-58
2022/08/21 03:37:46;;;;;;;;;;;16.60;99.90;;;;;;5118363;27;19934;-58
2022/08/21 03:40:27;;;;;;;;;;;16.60;99.90;;;;;;5112133;27;19920;-58
2022/08/21 03:43:08;;;;;;;;;;;16.60;99.90;;;;;;5096446;27;19935;-56
2022/08/21 03:45:48;;;;;;;;;;;16.60;99.90;;;;;;5117707;27;19922;-58
2022/08/21 03:48:28;;;;;;;;;;;16.60;99.90;;;;;;5111949;27;19953;-57
2022/08/21 03:51:08;;;;;;;;;;;16.60;99.90;;;;;;5110562;27;20377;-58
2022/08/21 03:53:48;;;;;;;;;;;16.60;99.90;;;;;;5117984;27;19926;-58
2022/08/21 03:56:28;;;;;;;;;;;16.60;99.90;;;;;;5107275;27;19922;-57
2022/08/21 03:59:08;;;;;;;;;;;16.60;99.90;;;;;;5098321;27;19950;-58
2022/08/21 04:01:54;;;;;;;;;;;16.60;99.90;;;;;;5120655;27;19989;-58
2022/08/21 04:04:34;;;;;;;;;;;16.60;99.90;;;;;;5117482;27;19912;-58
2022/08/21 04:07:15;;;;;;;;;;;16.60;99.90;;;;;;5080485;28;19913;-58
2022/08/21 04:09:55;;;;;;;;;;;16.60;99.90;;;;;;5099623;27;20442;-56
2022/08/21 04:12:35;;;;;;;;;;;16.70;99.90;;;;;;5121314;27;19912;-58
2022/08/21 04:15:15;;;;;;;;;;;16.70;99.90;;;;;;5099183;27;19926;-58
2022/08/21 04:17:54;;;;;;;;;;;16.70;99.90;;;;;;5112054;27;19954;-58
2022/08/21 04:20:35;;;;;;;;;;;16.70;99.90;;;;;;5098877;27;19946;-58
2022/08/21 04:23:14;;;;;;;;;;;16.70;99.90;;;;;;5121134;27;20311;-58
2022/08/21 04:25:55;;;;;;;;;;;16.70;99.90;;;;;;5118210;27;19916;-58
2022/08/21 04:28:35;;;;;;;;;;;16.70;99.90;;;;;;5114291;27;19954;-58
2022/08/21 04:31:15;;;;;;;;;;;16.80;99.90;;;;;;5120758;27;20266;-55
2022/08/21 04:33:56;;;;;;;;;;;16.80;99.90;;;;;;5152289;27;19915;-58
2022/08/21 04:36:36;;;;;;;;;;;16.80;99.90;;;;;;5091242;27;19954;-58
2022/08/21 04:39:16;;;;;;;;;;;16.80;99.90;;;;;;5102937;27;19954;-58
2022/08/21 04:41:56;;;;;;;;;;;16.80;99.90;;;;;;5116975;27;20412;-58
2022/08/21 04:44:36;;;;;;;;;;;16.80;99.90;;;;;;5096592;27;19926;-58
2022/08/21 04:47:16;;;;;;;;;;;16.90;99.90;;;;;;5124096;27;19932;-58
2022/08/21 04:49:55;;;;;;;;;;;16.90;99.90;;;;;;5077400;28;19921;-57
2022/08/21 04:52:35;;;;;;;;;;;16.90;99.90;;;;;;5099988;27;20327;-58
2022/08/21 04:55:16;;;;;;;;;;;16.90;99.90;;;;;;5109982;27;19923;-58
2022/08/21 04:57:57;;;;;;;;;;;17.00;99.90;;;;;;5122319;27;20094;-58
2022/08/21 05:00:38;;;;;;;;;;;17.00;99.90;;;;;;5101503;27;19920;-58
2022/08/21 05:03:18;;;;;;;;;;;17.00;99.90;;;;;;5124507;27;19912;-58
2022/08/21 05:05:58;;;;;;;;;;;17.10;99.90;;;;;;5122019;27;19919;-58
2022/08/21 05:08:39;;;;;;;;;;;17.10;99.90;;;;;;5097796;27;19928;-56
2022/08/21 05:11:19;;;;;;;;;;;17.20;99.90;;;;;;5120153;27;20434;-58
2022/08/21 05:14:00;;;;;;;;;;;17.20;99.90;;;;;;5117739;27;19912;-58
2022/08/21 05:16:41;;;;;;;;;;;17.20;99.90;;;;;;5119988;27;19911;-58
2022/08/21 05:19:23;;;;;;;;;;;17.20;99.90;;;;;;5111968;27;19952;-58
2022/08/21 05:22:03;;;;;;;;;;;17.30;99.90;;;;;;5118173;27;19918;-58
2022/08/21 05:24:43;;;;;;;;;;;17.30;99.90;;;;;;5108481;27;19912;-58
2022/08/21 05:27:23;;;;;;;;;;;17.30;99.90;;;;;;5118569;27;19918;-56
2022/08/21 05:30:03;;;;;;;;;;;17.40;99.90;;;;;;5123670;27;20370;-57
2022/08/21 05:32:44;;;;;;;;;;;17.40;99.90;;;;;;5124212;27;20407;-58
2022/08/21 05:35:24;;;;;;;;;;;17.50;99.90;;;;;;5110842;27;19919;-58
2022/08/21 05:38:06;;;;;;;;;;;17.50;99.90;;;;;;5121650;27;19920;-57
2022/08/21 05:40:47;;;;;;;;;;;17.50;99.90;;;;;;5103340;27;19912;-58
2022/08/21 05:43:28;;;;;;;;;;;17.50;99.90;;;;;;5115207;27;19942;-58
2022/08/21 05:46:08;;;;;;;;;;;17.50;99.90;;;;;;5123793;27;20438;-58
2022/08/21 05:48:49;;;;;;;;;;;17.50;99.90;;;;;;5123430;27;19916;-58
2022/08/21 05:51:29;;;;;;;;;;;17.50;99.90;;;;;;5116812;27;19939;-58
2022/08/21 05:54:09;;;;;;;;;;;17.60;99.90;;;;;;5118598;27;20299;-58
2022/08/21 05:56:49;;;;;;;;;;;17.60;99.90;;;;;;5121219;27;19922;-58
2022/08/21 05:59:29;;;;;;;;;;;17.60;99.90;;;;;;5097082;27;19912;-58
2022/08/21 06:02:09;;;;;;;;;;;17.70;99.90;;;;;;5119746;27;19912;-58
2022/08/21 06:04:48;;;;;;;;;;;17.80;99.90;;;;;;5120610;27;19912;-58
2022/08/21 06:07:30;;;;;;;;;;;17.80;99.90;;;;;;5118935;27;19916;-58
2022/08/21 06:10:10;;;;;;;;;;;17.80;99.90;;;;;;5116348;27;19926;-56
2022/08/21 06:12:53;;;;;;;;;;;17.80;99.90;;;;;;5098929;27;19957;-58
2022/08/21 06:15:32;;;;;;;;;;;17.80;99.90;;;;;;5114655;27;19916;-58
2022/08/21 06:18:12;;;;;;;;;;;17.80;99.90;;;;;;5119411;27;19918;-58
2022/08/21 06:20:52;;;;;;;;;;;17.70;99.90;;;;;;5123370;27;20293;-58
2022/08/21 06:23:32;;;;;;;;;;;17.70;99.90;;;;;;5111880;27;20199;-58
2022/08/21 06:26:12;;;;;;;;;;;17.70;99.90;;;;;;5111114;27;19918;-56
2022/08/21 06:28:53;;;;;;;;;;;17.70;99.90;;;;;;5122405;27;20316;-58
2022/08/21 06:31:33;;;;;;;;;;;17.80;99.90;;;;;;5075448;27;19912;-56
2022/08/21 06:34:13;;;;;;;;;;;17.90;99.90;;;;;;5119138;27;19918;-56
2022/08/21 06:36:53;;;;;;;;;;;17.90;99.90;;;;;;5134811;27;19912;-58
2022/08/21 06:39:33;;;;;;;;;;;18.00;99.90;;;;;;5111516;27;19912;-58
2022/08/21 06:42:15;;;;;;;;;;;18.00;99.90;;;;;;5104284;27;19912;-58
2022/08/21 06:44:55;;;;;;;;;;;18.00;99.90;;;;;;5083692;28;19916;-58
2022/08/21 06:47:35;;;;;;;;;;;18.10;99.90;;;;;;5122003;27;20278;-58
2022/08/21 06:50:15;;;;;;;;;;;18.20;99.90;;;;;;5115676;27;20185;-58
2022/08/21 06:53:00;;;;;;;;;;;18.30;99.90;;;;;;5124959;27;19911;-58
2022/08/21 06:55:42;;;;;;;;;;;18.50;99.90;;;;;;5124471;27;20284;-58
2022/08/21 06:58:23;;;;;;;;;;;18.70;99.90;;;;;;5121471;27;19922;-58
2022/08/21 07:01:02;;;;;;;;;;;18.80;99.90;;;;;;5123337;27;19916;-58
2022/08/21 07:03:43;;;;;;;;;;;18.90;99.90;;;;;;5124809;27;19912;-58
2022/08/21 07:06:24;;;;;;;;;;;19.00;99.90;;;;;;5121268;27;19912;-58
2022/08/21 07:09:05;;;;;;;;;;;19.20;99.90;;;;;;5120638;27;20307;-58
2022/08/21 07:11:47;;;;;;;;;;;19.40;99.90;;;;;;5121297;27;19912;-58
2022/08/21 07:14:26;;;;;;;;;;;19.60;99.90;;;;;;5120130;27;19916;-58
2022/08/21 07:17:06;;;;;;;;;;;19.80;99.90;;;;;;5125282;27;20336;-57
2022/08/21 07:19:46;;;;;;;;;;;20.00;99.90;;;;;;5124149;27;20393;-58
2022/08/21 07:22:27;;;;;;;;;;;20.00;99.90;;;;;;5115775;27;19912;-58
2022/08/21 07:25:08;;;;;;;;;;;20.10;99.90;;;;;;5098433;27;20431;-58
2022/08/21 07:27:48;;;;;;;;;;;20.20;99.90;;;;;;5094705;27;19922;-58
2022/08/21 07:30:29;;;;;;;;;;;20.40;99.90;;;;;;5119799;27;19953;-56
2022/08/21 07:33:10;;;;;;;;;;;20.90;99.90;;;;;;5125067;27;20430;-58
2022/08/21 07:35:50;;;;;;;;;;;21.20;99.90;;;;;;5123509;27;19919;-58
2022/08/21 07:38:29;;;;;;;;;;;21.30;99.90;;;;;;5124443;27;19926;-58
2022/08/21 07:41:13;;;;;;;;;;;21.20;99.90;;;;;;5105416;22;19925;-53
2022/08/21 07:43:54;;;;;;;;;;;21.20;99.90;;;;;;5125065;27;19919;-55
2022/08/21 07:46:34;;;;;;;;;;;21.20;99.90;;;;;;5123540;27;19957;-55
2022/08/21 07:49:14;;;;;;;;;;;21.40;99.90;;;;;;5123564;27;20575;-55
2022/08/21 07:51:54;;;;;;;;;;;21.60;99.90;;;;;;5124460;27;20326;-55
2022/08/21 07:54:35;;;;;;;;;;;21.60;99.90;;;;;;5124020;27;19911;-55
2022/08/21 07:57:15;;;;;;;;;;;21.70;99.90;;;;;;5103254;27;19912;-55
2022/08/21 07:59:56;;;;;;;;;;;21.70;99.90;;;;;;5121310;27;19915;-55
2022/08/21 08:02:36;;;;;;;;;;;21.70;99.90;;;;;;5105728;27;19916;-55
2022/08/21 08:05:17;;;;;;;;;;;21.80;99.90;;;;;;5146490;27;20226;-55
2022/08/21 08:07:57;;;;;;;;;;;22.00;99.90;;;;;;5126065;27;19919;-55
2022/08/21 08:10:39;;;;;;;;;;;22.30;99.90;;;;;;5114745;27;19913;-55
2022/08/21 08:13:20;;;;;;;;;;;22.30;99.90;;;;;;5121378;27;20367;-55
2022/08/21 08:16:00;;;;;;;;;;;22.40;99.90;;;;;;5125925;27;19912;-55
2022/08/21 08:18:40;;;;;;;;;;;22.80;99.90;;;;;;5123231;27;19911;-55
2022/08/21 08:21:21;;;;;;;;;;;23.30;99.90;;;;;;5144879;27;19912;-55
2022/08/21 08:24:01;;;;;;;;;;;23.40;99.90;;;;;;5085146;28;20405;-55
2022/08/21 08:26:41;;;;;;;;;;;23.80;99.90;;;;;;5125312;27;19930;-55
2022/08/21 08:29:21;;;;;;;;;;;24.10;99.90;;;;;;5125395;27;19918;-55
2022/08/21 08:32:02;;;;;;;;;;;24.20;99.90;;;;;;5112655;27;19912;-55
2022/08/21 08:34:44;;;;;;;;;;;24.40;99.90;;;;;;5104941;27;19916;-54
2022/08/21 08:37:24;;;;;;;;;;;24.10;99.90;;;;;;5113652;27;19912;-55
2022/08/21 08:40:04;;;;;;;;;;;24.00;99.90;;;;;;5081554;28;20382;-55
2022/08/21 08:42:47;;;;;;;;;;;24.20;99.90;;;;;;5125328;27;19916;-55
2022/08/21 08:45:30;;;;;;;;;;;24.30;99.90;;;;;;5124220;27;19916;-55
2022/08/21 08:48:33;;;;;;;;;;;24.20;99.90;;;;;;5126049;27;19918;-55
2022/08/21 08:51:17;;;;;;;;;;;24.20;99.90;;;;;;5109480;27;19917;-55
2022/08/21 08:53:59;;;;;;;;;;;24.50;99.90;;;;;;5126392;27;19919;-54
2022/08/21 08:56:39;;;;;;;;;;;24.60;99.90;;;;;;5084736;27;19966;-55
2022/08/21 08:59:21;;;;;;;;;;;24.40;99.90;;;;;;5147891;27;19912;-55
2022/08/21 09:02:03;;;;;;;;;;;24.50;99.90;;;;;;5121284;27;19916;-54
2022/08/21 09:04:46;;;;;;;;;;;24.60;99.90;;;;;;5101837;27;19918;-54
2022/08/21 09:07:31;;;;;;;;;;;24.80;99.90;;;;;;5106010;27;19916;-55
2022/08/21 09:10:18;;;;;;;;;;;25.00;99.90;;;;;;5076927;28;19913;-55
2022/08/21 09:13:05;;;;;;;;;;;25.30;99.90;;;;;;5084778;28;20388;-55
2022/08/21 09:15:49;;;;;;;;;;;25.40;99.90;;;;;;5129425;27;20270;-55
2022/08/21 09:18:39;;;;;;;;;;;25.40;99.90;;;;;;5125695;27;20384;-54
2022/08/21 09:21:25;;;;;;;;;;;25.30;99.90;;;;;;5119438;27;19926;-55
2022/08/21 09:24:14;;;;;;;;;;;25.00;99.90;;;;;;5126399;27;20419;-55
2022/08/21 09:26:58;;;;;;;;;;;24.70;99.90;;;;;;5105014;27;19918;-55
2022/08/21 09:29:40;;;;;;;;;;;24.90;99.90;;;;;;5104311;27;19912;-55
2022/08/21 09:32:21;;;;;;;;;;;25.30;99.90;;;;;;5133734;27;19913;-55
2022/08/21 09:35:02;;;;;;;;;;;25.60;99.90;;;;;;5105016;27;19982;-54
2022/08/21 09:37:51;;;;;;;;;;;25.60;99.90;;;;;;5125624;27;19916;-55
2022/08/21 09:40:34;;;;;;;;;;;25.70;99.90;;;;;;5104295;27;19912;-55
2022/08/21 09:43:19;;;;;;;;;;;25.40;99.90;;;;;;5125666;27;19953;-55
2022/08/21 09:46:05;;;;;;;;;;;25.30;99.90;;;;;;5102248;27;19912;-55
2022/08/21 09:48:48;;;;;;;;;;;25.30;99.90;;;;;;5125121;27;19933;-55
2022/08/21 09:51:31;;;;;;;;;;;24.90;99.90;;;;;;5110094;27;19916;-55
2022/08/21 09:54:15;;;;;;;;;;;24.90;99.90;;;;;;5124093;27;20287;-55
2022/08/21 09:59:54;;;;;;;;;;;25.10;99.90;;;;;;5103969;27;20463;-55
2022/08/21 10:02:36;;;;;;;;;;;25.60;99.90;;;;;;5105230;27;19912;-55
2022/08/21 10:05:19;;;;;;;;;;;26.00;99.90;;;;;;5126688;27;19935;-55
2022/08/21 10:08:00;;;;;;;;;;;26.10;99.90;;;;;;5119428;27;20369;-55
2022/08/21 10:10:41;;;;;;;;;;;25.90;99.90;;;;;;5110366;27;20284;-54
2022/08/21 10:13:25;;;;;;;;;;;25.80;99.90;;;;;;5090251;27;19912;-55
2022/08/21 10:16:13;;;;;;;;;;;25.80;99.90;;;;;;5121549;27;19969;-55
2022/08/21 10:18:59;;;;;;;;;;;26.00;99.90;;;;;;5112006;27;20376;-55
2022/08/21 10:21:43;;;;;;;;;;;25.90;99.90;;;;;;5120560;27;19912;-55
2022/08/21 10:24:26;;;;;;;;;;;25.60;99.90;;;;;;5125867;27;19916;-55
2022/08/21 10:27:16;;;;;;;;;;;25.10;99.90;;;;;;5152067;27;19926;-55
2022/08/21 10:29:57;;;;;;;;;;;24.80;99.90;;;;;;5123128;27;19911;-55
2022/08/21 10:32:44;;;;;;;;;;;24.50;99.90;;;;;;5099808;27;19962;-55
2022/08/21 10:35:30;;;;;;;;;;;24.50;99.90;;;;;;5111854;27;19912;-55
2022/08/21 10:38:23;;;;;;;;;;;24.60;99.90;;;;;;5100632;27;19939;-54
2022/08/21 10:41:10;;;;;;;;;;;24.50;99.90;;;;;;5092756;27;19913;-55
2022/08/21 10:43:52;;;;;;;;;;;24.50;99.90;;;;;;5124983;27;20415;-55
2022/08/21 10:46:38;;;;;;;;;;;24.70;99.90;;;;;;5085497;28;19918;-55
2022/08/21 10:49:27;;;;;;;;;;;24.70;99.90;;;;;;5124848;27;19918;-55
2022/08/21 10:52:17;;;;;;;;;;;24.80;99.90;;;;;;5105734;27;19912;-54
2022/08/21 10:55:01;;;;;;;;;;;24.60;99.90;;;;;;5084949;28;19912;-55
2022/08/21 10:57:44;;;;;;;;;;;24.80;99.90;;;;;;5123209;27;20354;-55
2022/08/21 11:00:28;;;;;;;;;;;24.90;99.90;;;;;;5123638;27;19912;-55
2022/08/21 11:03:11;;;;;;;;;;;24.90;99.90;;;;;;5122635;27;19918;-54
2022/08/21 11:05:53;;;;;;;;;;;25.20;99.90;;;;;;5115209;27;19922;-55
2022/08/21 11:08:36;;;;;;;;;;;25.40;99.90;;;;;;5120638;27;20604;-54
2022/08/21 11:11:20;;;;;;;;;;;25.60;99.90;;;;;;5114939;27;19916;-55
2022/08/21 11:14:03;;;;;;;;;;;25.90;99.90;;;;;;5105163;27;19947;-55
2022/08/21 11:16:46;;;;;;;;;;;26.10;99.90;;;;;;5154795;27;19927;-55
2022/08/21 11:19:29;;;;;;;;;;;26.30;99.90;;;;;;5100748;27;20060;-55
2022/08/21 11:22:14;;;;;;;;;;;26.50;99.90;;;;;;5154457;27;20335;-55
2022/08/21 11:24:58;;;;;;;;;;;27.20;99.90;;;;;;5117494;27;19912;-55
2022/08/21 11:27:42;;;;;;;;;;;27.50;99.10;;;;;;5154643;27;19918;-55
2022/08/21 11:30:23;;;;;;;;;;;27.40;99.80;;;;;;5097374;27;19926;-55
2022/08/21 11:33:12;;;;;;;;;;;27.90;93.70;;;;;;5124683;27;19918;-55
2022/08/21 11:35:57;;;;;;;;;;;28.10;92.60;;;;;;5146516;27;19911;-55
2022/08/21 11:38:41;;;;;;;;;;;28.30;85.60;;;;;;5122916;27;20278;-55
2022/08/21 11:41:28;;;;;;;;;;;28.30;80.60;;;;;;5105329;27;19927;-53
2022/08/21 11:44:11;;;;;;;;;;;28.30;79.30;;;;;;5121541;27;19939;-55
2022/08/21 11:46:58;;;;;;;;;;;28.00;80.10;;;;;;5134375;27;19912;-56
2022/08/21 11:49:46;;;;;;;;;;;27.80;84.00;;;;;;5120684;27;19916;-54
2022/08/21 11:52:29;;;;;;;;;;;27.60;83.90;;;;;;5121311;27;19935;-55
2022/08/21 11:55:13;;;;;;;;;;;27.90;83.90;;;;;;5103681;27;19942;-56
2022/08/21 11:57:55;;;;;;;;;;;27.70;80.40;;;;;;5139453;27;19918;-55
2022/08/21 12:00:39;;;;;;;;;;;27.50;82.20;;;;;;5119155;27;19912;-54
2022/08/21 12:03:24;;;;;;;;;;;27.20;87.30;;;;;;5123656;27;19922;-55
2022/08/21 12:06:06;;;;;;;;;;;27.00;85.30;;;;;;5104650;27;19926;-55
2022/08/21 12:08:58;;;;;;;;;;;26.40;88.10;;;;;;5124543;27;19961;-55
2022/08/21 12:11:49;;;;;;;;;;;26.00;87.30;;;;;;5108895;27;20193;-55
2022/08/21 12:14:38;;;;;;;;;;;25.60;90.60;;;;;;5123968;27;19920;-55
2022/08/21 12:17:20;;;;;;;;;;;25.20;93.30;;;;;;5123836;27;20285;-55
2022/08/21 12:20:00;;;;;;;;;;;25.00;98.00;;;;;;5123583;27;19922;-54
2022/08/21 12:22:41;;;;;;;;;;;24.80;99.90;;;;;;5124033;27;19922;-55
2022/08/21 12:25:23;;;;;;;;;;;24.80;99.90;;;;;;5124610;27;19911;-55
2022/08/21 12:28:08;;;;;;;;;;;24.80;99.90;;;;;;5124080;27;20316;-55
2022/08/21 12:30:49;;;;;;;;;;;24.70;99.90;;;;;;5124021;27;19922;-55
2022/08/21 12:33:32;;;;;;;;;;;24.70;99.90;;;;;;5124414;27;20385;-55
2022/08/21 12:36:15;;;;;;;;;;;24.70;99.90;;;;;;5124134;27;19918;-54
2022/08/21 12:38:58;;;;;;;;;;;24.40;99.90;;;;;;5121053;27;19922;-55
2022/08/21 12:41:42;;;;;;;;;;;24.00;99.90;;;;;;5122798;27;19918;-55
2022/08/21 12:44:27;;;;;;;;;;;23.80;99.90;;;;;;5123649;27;19918;-55
2022/08/21 12:47:13;;;;;;;;;;;23.50;99.90;;;;;;5123712;27;20304;-55
2022/08/21 12:49:55;;;;;;;;;;;22.00;99.90;;;;;;5125671;27;19923;-55
2022/08/21 12:52:37;;;;;;;;;;;21.00;99.90;;;;;;5123933;27;20280;-55
2022/08/21 12:55:26;;;;;;;;;;;20.40;99.90;;;;;;5124439;27;20407;-55
2022/08/21 12:58:07;;;;;;;;;;;20.20;99.90;;;;;;5124329;27;19918;-55
2022/08/21 13:00:50;;;;;;;;;;;20.20;99.90;;;;;;5093806;27;19970;-55
2022/08/21 13:03:30;;;;;;;;;;;20.20;99.90;;;;;;5124715;27;19912;-55
2022/08/21 13:06:16;;;;;;;;;;;20.30;99.90;;;;;;5124198;27;19922;-55
2022/08/21 13:08:58;;;;;;;;;;;20.30;99.90;;;;;;5103071;27;19954;-55
2022/08/21 13:11:40;;;;;;;;;;;20.30;99.90;;;;;;5121661;27;19922;-55
2022/08/21 13:14:23;;;;;;;;;;;20.40;99.90;;;;;;5123944;27;20362;-55
2022/08/21 13:17:05;;;;;;;;;;;20.40;99.90;;;;;;5123630;27;19941;-55
2022/08/21 13:19:53;;;;;;;;;;;20.30;99.90;;;;;;5122813;27;19922;-55
2022/08/21 13:22:36;;;;;;;;;;;20.40;99.90;;;;;;5123976;27;19912;-55
2022/08/21 13:25:18;;;;;;;;;;;20.50;99.90;;;;;;5124078;27;19916;-55
2022/08/21 13:28:01;;;;;;;;;;;20.40;99.90;;;;;;5124118;27;19912;-55
2022/08/21 13:30:43;;;;;;;;;;;20.50;99.90;;;;;;5099519;27;20418;-55
2022/08/21 13:33:24;;;;;;;;;;;20.60;99.90;;;;;;5124675;27;19918;-55
2022/08/21 13:36:06;;;;;;;;;;;20.50;99.90;;;;;;5123708;27;19916;-55
2022/08/21 13:38:46;;;;;;;;;;;20.50;99.90;;;;;;5122912;27;19926;-56
2022/08/21 13:41:27;;;;;;;;;;;20.60;99.90;;;;;;5086699;27;19962;-55
2022/08/21 13:44:15;;;;;;;;;;;20.90;99.90;;;;;;5154107;22;19938;-54
2022/08/21 13:46:55;;;;;;;;;;;21.50;99.90;;;;;;5110526;27;19926;-54
2022/08/21 13:49:38;;;;;;;;;;;21.90;99.90;;;;;;5120182;27;19929;-54
2022/08/21 13:52:19;;;;;;;;;;;22.20;99.90;;;;;;5122130;27;19934;-54
2022/08/21 13:55:01;;;;;;;;;;;22.60;99.90;;;;;;5105274;27;19926;-54
2022/08/21 13:57:41;;;;;;;;;;;23.10;99.90;;;;;;5109261;27;20398;-54
2022/08/21 14:00:25;;;;;;;;;;;23.50;99.90;;;;;;5123828;27;19912;-54
2022/08/21 14:03:07;;;;;;;;;;;23.70;99.90;;;;;;5115852;27;20095;-54
2022/08/21 14:05:47;;;;;;;;;;;24.10;99.90;;;;;;5120066;27;19930;-54
2022/08/21 14:08:28;;;;;;;;;;;24.50;99.90;;;;;;5100775;27;19916;-53
2022/08/21 14:11:11;;;;;;;;;;;24.60;99.90;;;;;;5123505;27;19912;-54
2022/08/21 14:13:57;;;;;;;;;;;24.90;99.90;;;;;;5139401;27;19929;-55
2022/08/21 14:16:47;;;;;;;;;;;25.30;99.90;;;;;;5120862;27;19925;-54
2022/08/21 14:19:28;;;;;;;;;;;25.60;99.90;;;;;;5108408;27;20510;-55
2022/08/21 14:22:24;;;;;;;;;;;25.80;98.30;;;;;;5099323;27;19918;-55
2022/08/21 14:25:06;;;;;;;;;;;26.00;97.90;;;;;;5123936;27;19918;-55
2022/08/21 14:27:50;;;;;;;;;;;26.10;97.40;;;;;;5114718;27;20300;-55
2022/08/21 14:30:32;;;;;;;;;;;26.00;93.00;;;;;;5116691;27;19918;-55
2022/08/21 14:33:16;;;;;;;;;;;25.90;96.10;;;;;;5115191;27;19918;-55
2022/08/21 14:35:56;;;;;;;;;;;25.90;94.80;;;;;;5147721;27;20400;-54
2022/08/21 14:38:36;;;;;;;;;;;25.80;97.90;;;;;;5116334;27;19912;-55
2022/08/21 14:41:18;;;;;;;;;;;25.90;97.50;;;;;;5103555;27;20729;-55
2022/08/21 14:43:58;;;;;;;;;;;25.90;96.60;;;;;;5114529;27;19922;-55
2022/08/21 14:46:38;;;;;;;;;;;26.00;95.00;;;;;;5116873;27;19916;-54
2022/08/21 14:49:18;;;;;;;;;;;26.20;93.20;;;;;;5117352;27;19915;-55
2022/08/21 14:51:58;;;;;;;;;;;26.60;93.00;;;;;;5122058;27;20360;-58
2022/08/21 14:54:39;;;;;;;;;;;27.00;87.10;;;;;;5118672;27;19912;-54
2022/08/21 14:57:22;;;;;;;;;;;27.60;89.70;;;;;;5119457;27;19912;-55
2022/08/21 15:00:02;;;;;;;;;;;28.20;80.80;;;;;;5113992;27;19916;-56
2022/08/21 15:02:44;;;;;;;;;;;28.50;79.10;;;;;;5122035;27;19926;-53
2022/08/21 15:05:24;;;;;;;;;;;28.70;67.40;;;;;;5124724;27;19912;-54
2022/08/21 15:08:04;;;;;;;;;;;28.70;67.10;;;;;;5120203;27;19918;-55
2022/08/21 15:10:43;;;;;;;;;;;28.70;65.50;;;;;;5121328;27;19916;-54
2022/08/21 15:13:23;;;;;;;;;;;28.60;68.80;;;;;;5121963;27;20266;-56
2022/08/21 15:16:05;;;;;;;;;;;28.50;68.30;;;;;;5098073;27;19967;-55
2022/08/21 15:18:44;;;;;;;;;;;28.30;71.00;;;;;;5118705;27;19942;-54
2022/08/21 15:21:24;;;;;;;;;;;27.70;68.80;;;;;;5096057;27;19919;-56
2022/08/21 15:24:04;;;;;;;;;;;27.30;71.80;;;;;;5125241;27;20303;-53
2022/08/21 15:26:44;;;;;;;;;;;27.10;68.70;;;;;;5118669;27;19920;-56
2022/08/21 15:29:25;;;;;;;;;;;27.20;70.90;;;;;;5107643;27;19922;-55
2022/08/21 15:32:16;;;;;;;;;;;27.40;69.60;;;;;;5100173;27;20369;-53
2022/08/21 15:34:56;;;;;;;;;;;27.30;64.80;;;;;;5108916;27;19932;-55
2022/08/21 15:37:36;;;;;;;;;;;27.20;64.70;;;;;;5095573;27;20381;-55
2022/08/21 15:40:17;;;;;;;;;;;27.00;65.00;;;;;;5122853;27;19912;-53
2022/08/21 15:42:59;;;;;;;;;;;27.10;63.90;;;;;;5115692;27;19923;-52